Unionville, Pennsylvania
Current Conditions -  °F | °C
As of 11:35 PM on Saturday 22 Nov 2014 (Local Time) from KMQS Reporting Station
Broken Clouds Broken Clouds  
Wind Chill: 39°   Ceiling: 10000
Heat Index: 39°   Visibility: 10mi
Dew Point: 23°   Wind: 3mph
Humidity: 52%   Direction: 260°W
Pressure: 30.24"   Gusts: NA
Location:  39.9°N, 75.73°W
Report Text: KMQS 230435Z AUTO 26003KT 10SM BKN100 04/M05 A3024 RMK AO2
Loading
Personal Weather Stations






























Interactive Weather Map New forecast layout! Learn more

10-Day Weather Forecast

Advertisements
Track Severe Weather on mobile